createdAt,value
2022-10-01T00:02:09.910Z,12.77
2022-10-01T00:04:39.744Z,12.81
2022-10-01T00:07:11.155Z,12.84
2022-10-01T00:09:39.565Z,12.86
2022-10-01T00:12:08.278Z,12.90
2022-10-01T00:14:39.347Z,12.94
2022-10-01T00:17:07.686Z,12.93
2022-10-01T00:19:36.079Z,12.90
2022-10-01T00:22:04.393Z,12.87
2022-10-01T00:24:32.769Z,12.84
2022-10-01T00:27:01.052Z,12.81
2022-10-01T00:29:32.043Z,12.78
2022-10-01T00:32:00.583Z,12.75
2022-10-01T00:34:28.993Z,12.70
2022-10-01T00:36:57.886Z,12.66
2022-10-01T00:39:26.314Z,12.62
2022-10-01T00:41:54.872Z,12.57
2022-10-01T00:44:35.625Z,12.52
2022-10-01T00:47:23.982Z,12.47
2022-10-01T00:49:59.301Z,12.41
2022-10-01T00:52:32.336Z,12.42
2022-10-01T00:55:43.661Z,12.47
2022-10-01T00:58:14.897Z,12.55
2022-10-01T01:00:43.529Z,12.59
2022-10-01T01:03:13.006Z,12.62
2022-10-01T01:05:41.549Z,12.60
2022-10-01T01:08:11.112Z,12.58
2022-10-01T01:11:04.685Z,12.54
2022-10-01T01:14:10.560Z,12.50
2022-10-01T01:16:49.849Z,12.45
2022-10-01T01:20:09.313Z,12.41
2022-10-01T01:22:46.665Z,12.37
2022-10-01T01:25:21.969Z,12.36
2022-10-01T01:28:20.017Z,12.39
2022-10-01T01:30:51.989Z,12.41
2022-10-01T01:33:22.523Z,12.41
2022-10-01T01:36:04.896Z,12.41
2022-10-01T01:38:43.331Z,12.42
2022-10-01T01:41:13.615Z,12.44
2022-10-01T01:43:46.087Z,12.46
2022-10-01T01:46:18.909Z,12.46
2022-10-01T01:48:51.365Z,12.44
2022-10-01T01:51:26.294Z,12.42
2022-10-01T01:53:54.794Z,12.38
2022-10-01T01:56:24.176Z,12.34
2022-10-01T01:58:57.546Z,12.28
2022-10-01T02:01:38.116Z,12.23
2022-10-01T02:04:20.783Z,12.18
2022-10-01T02:06:57.940Z,12.11
2022-10-01T02:09:58.431Z,12.05
2022-10-01T02:12:41.758Z,12.00
2022-10-01T02:15:27.809Z,11.97
2022-10-01T02:18:22.945Z,11.93
2022-10-01T02:21:20.819Z,11.90
2022-10-01T02:24:05.223Z,11.88
2022-10-01T02:26:37.697Z,11.89
2022-10-01T02:29:10.133Z,11.92
2022-10-01T02:31:40.017Z,11.92
2022-10-01T02:34:12.661Z,11.94
2022-10-01T02:36:42.707Z,11.94
2022-10-01T02:39:15.260Z,11.94
2022-10-01T02:41:46.172Z,11.94
2022-10-01T02:44:23.696Z,11.92
2022-10-01T02:47:03.202Z,11.88
2022-10-01T02:49:32.389Z,11.84
2022-10-01T02:52:13.304Z,11.80
2022-10-01T02:55:15.150Z,11.78
2022-10-01T02:57:43.958Z,11.72
2022-10-01T03:00:17.052Z,11.67
2022-10-01T03:02:45.395Z,11.63
2022-10-01T03:05:15.650Z,11.55
2022-10-01T03:07:44.532Z,11.49
2022-10-01T03:10:13.599Z,11.43
2022-10-01T03:12:44.386Z,11.39
2022-10-01T03:15:14.967Z,11.34
2022-10-01T03:17:43.510Z,11.30
2022-10-01T03:20:12.592Z,11.26
2022-10-01T03:22:40.841Z,11.25
2022-10-01T03:25:09.679Z,11.24
2022-10-01T03:27:38.445Z,11.24
2022-10-01T03:30:07.413Z,11.23
2022-10-01T03:32:35.932Z,11.22
2022-10-01T03:35:04.941Z,11.22
2022-10-01T03:37:33.400Z,11.21
2022-10-01T03:40:01.980Z,11.20
2022-10-01T03:42:30.313Z,11.20
2022-10-01T03:44:58.590Z,11.21
2022-10-01T03:47:26.889Z,11.21
2022-10-01T03:49:55.139Z,11.20
2022-10-01T03:52:23.539Z,11.20
2022-10-01T03:54:51.901Z,11.17
2022-10-01T03:57:20.195Z,11.14
2022-10-01T03:59:48.506Z,11.10
2022-10-01T04:02:17.008Z,11.08
2022-10-01T04:04:45.428Z,11.05
2022-10-01T04:07:13.709Z,11.02
2022-10-01T04:09:42.048Z,10.98
2022-10-01T04:12:10.721Z,10.94
2022-10-01T04:14:39.120Z,10.90
2022-10-01T04:17:07.484Z,10.88
2022-10-01T04:19:35.835Z,10.85
2022-10-01T04:22:04.154Z,10.82
2022-10-01T04:24:32.457Z,10.79
2022-10-01T04:27:00.790Z,10.74
2022-10-01T04:29:29.088Z,10.71
2022-10-01T04:31:58.414Z,10.68
2022-10-01T04:34:46.716Z,10.66
2022-10-01T04:37:15.040Z,10.65
2022-10-01T04:39:43.335Z,10.65
2022-10-01T04:42:15.125Z,10.65
2022-10-01T04:44:43.414Z,10.65
2022-10-01T04:47:11.811Z,10.65
2022-10-01T04:49:40.168Z,10.66
2022-10-01T04:52:08.480Z,10.68
2022-10-01T04:54:36.791Z,10.74
2022-10-01T04:57:05.092Z,10.81
2022-10-01T04:59:33.813Z,10.86
2022-10-01T05:02:02.202Z,10.92
2022-10-01T05:04:30.580Z,10.99
2022-10-01T05:06:58.921Z,11.07
2022-10-01T05:09:27.286Z,11.21
2022-10-01T05:11:55.605Z,11.29
2022-10-01T05:14:25.103Z,11.37
2022-10-01T05:16:53.414Z,11.43
2022-10-01T05:19:25.284Z,11.49
2022-10-01T05:21:56.853Z,11.53
2022-10-01T05:24:25.681Z,11.57
2022-10-01T05:26:54.458Z,11.60
2022-10-01T05:29:23.262Z,11.62
2022-10-01T05:31:51.661Z,11.66
2022-10-01T05:34:20.084Z,11.71
2022-10-01T05:36:48.394Z,11.76
2022-10-01T05:39:16.716Z,11.81
2022-10-01T05:41:45.047Z,11.85
2022-10-01T05:44:13.388Z,11.89
2022-10-01T05:46:43.878Z,11.95
2022-10-01T05:49:12.198Z,12.03
2022-10-01T05:51:40.510Z,12.09
2022-10-01T05:54:08.889Z,12.23
2022-10-01T05:56:37.290Z,12.40
2022-10-01T05:59:06.040Z,12.59
2022-10-01T06:01:34.512Z,12.89
2022-10-01T06:04:03.363Z,13.21
2022-10-01T06:06:31.692Z,13.56
2022-10-01T06:09:00.113Z,13.87
2022-10-01T06:11:29.007Z,14.20
2022-10-01T06:13:57.415Z,14.55
2022-10-01T06:16:25.905Z,14.88
2022-10-01T06:18:57.741Z,15.18
2022-10-01T06:21:27.107Z,15.49
2022-10-01T06:23:55.477Z,15.80
2022-10-01T06:26:24.805Z,16.10
2022-10-01T06:28:53.129Z,16.30
2022-10-01T06:31:22.329Z,16.48
2022-10-01T06:33:50.776Z,16.68
2022-10-01T06:36:19.111Z,16.86
2022-10-01T06:38:50.854Z,16.95
2022-10-01T06:41:20.121Z,16.98
2022-10-01T06:43:49.445Z,17.11
2022-10-01T06:46:17.782Z,17.33
2022-10-01T06:48:46.136Z,17.52
2022-10-01T06:51:14.425Z,17.70
2022-10-01T06:53:42.688Z,17.84
2022-10-01T06:56:10.965Z,18.02
2022-10-01T06:58:42.770Z,18.25
2022-10-01T07:01:11.380Z,18.45
2022-10-01T07:03:39.846Z,18.71
2022-10-01T07:06:10.034Z,18.94
2022-10-01T07:08:38.816Z,19.16
2022-10-01T07:11:07.271Z,19.37
2022-10-01T07:13:35.603Z,19.54
2022-10-01T07:16:05.153Z,19.73
2022-10-01T07:18:33.697Z,19.89
2022-10-01T07:21:02.057Z,19.99
2022-10-01T07:23:30.436Z,20.11
2022-10-01T07:25:59.243Z,20.14
2022-10-01T07:28:28.441Z,20.09
2022-10-01T07:31:11.562Z,20.24
2022-10-01T07:33:40.945Z,20.50
2022-10-01T07:36:12.517Z,20.62
2022-10-01T07:38:42.029Z,20.75
2022-10-01T07:41:10.651Z,20.83
2022-10-01T07:43:39.587Z,20.85
2022-10-01T07:46:07.929Z,20.81
2022-10-01T07:48:37.089Z,20.74
2022-10-01T07:51:05.487Z,20.74
2022-10-01T07:53:33.828Z,20.86
2022-10-01T07:56:03.134Z,21.02
2022-10-01T07:58:31.490Z,21.20
2022-10-01T08:01:04.281Z,21.45
2022-10-01T08:03:32.830Z,21.59
2022-10-01T08:06:03.718Z,21.70
2022-10-01T08:08:32.216Z,21.80
2022-10-01T08:11:03.637Z,21.82
2022-10-01T08:13:32.043Z,21.87
2022-10-01T08:16:03.997Z,21.93
2022-10-01T08:18:33.828Z,21.99
2022-10-01T08:21:02.514Z,22.03
2022-10-01T08:23:33.649Z,22.09
2022-10-01T08:26:07.898Z,22.36
2022-10-01T08:28:36.449Z,22.87
2022-10-01T08:31:09.314Z,23.33
2022-10-01T08:33:39.150Z,23.73
2022-10-01T08:36:08.845Z,24.13
2022-10-01T08:38:37.915Z,24.48
2022-10-01T08:41:46.800Z,24.78
2022-10-01T08:44:21.906Z,25.04
2022-10-01T08:46:51.567Z,25.43
2022-10-01T08:49:37.973Z,25.70
2022-10-01T08:52:15.962Z,25.86
2022-10-01T08:54:51.650Z,25.85
2022-10-01T08:57:30.053Z,25.79
2022-10-01T09:00:01.565Z,25.68
2022-10-01T09:02:33.545Z,25.59
2022-10-01T09:05:11.205Z,25.48
2022-10-01T09:07:52.078Z,25.33
2022-10-01T09:10:28.823Z,25.28
2022-10-01T09:13:21.602Z,25.20
2022-10-01T09:15:59.945Z,25.05
2022-10-01T09:18:57.885Z,24.95
2022-10-01T09:21:51.491Z,24.87
2022-10-01T09:24:26.815Z,24.81
2022-10-01T09:26:55.529Z,24.77
2022-10-01T09:29:35.915Z,24.71
2022-10-01T09:32:06.159Z,24.67
2022-10-01T09:34:40.298Z,24.58
2022-10-01T09:37:14.988Z,24.49
2022-10-01T09:39:57.804Z,24.40
2022-10-01T09:42:29.796Z,24.33
2022-10-01T09:44:58.657Z,24.28
2022-10-01T09:47:27.348Z,24.21
2022-10-01T09:49:58.947Z,24.16
2022-10-01T09:52:40.067Z,24.11
2022-10-01T09:55:11.348Z,24.06
2022-10-01T09:57:46.571Z,24.03
2022-10-01T10:00:21.029Z,24.03
2022-10-01T10:02:51.853Z,24.03
2022-10-01T10:05:26.380Z,24.08
2022-10-01T10:08:11.457Z,24.17
2022-10-01T10:10:49.335Z,24.34
2022-10-01T10:13:26.874Z,24.61
2022-10-01T10:16:00.116Z,25.06
2022-10-01T10:18:35.658Z,25.54
2022-10-01T10:21:12.173Z,25.83
2022-10-01T10:23:50.174Z,26.04
2022-10-01T10:26:34.978Z,26.32
2022-10-01T10:29:05.701Z,26.55
2022-10-01T10:31:44.256Z,26.72
2022-10-01T10:34:15.397Z,26.85
2022-10-01T10:36:45.972Z,26.96
2022-10-01T10:39:22.301Z,27.09
2022-10-01T10:41:52.504Z,27.10
2022-10-01T10:44:22.795Z,27.11
2022-10-01T10:46:52.513Z,27.20
2022-10-01T10:49:21.904Z,27.22
2022-10-01T10:51:55.591Z,27.22
2022-10-01T10:54:30.456Z,27.16
2022-10-01T10:57:12.248Z,27.03
2022-10-01T10:59:40.780Z,26.96
2022-10-01T11:02:18.301Z,26.82
2022-10-01T11:04:47.700Z,26.68
2022-10-01T11:07:21.820Z,26.61
2022-10-01T11:10:03.846Z,26.56
2022-10-01T11:13:06.921Z,26.48
2022-10-01T11:16:03.402Z,26.32
2022-10-01T11:18:56.212Z,26.30
2022-10-01T11:21:39.574Z,26.22
2022-10-01T11:24:36.116Z,26.11
2022-10-01T11:27:26.760Z,26.12
2022-10-01T11:30:21.136Z,26.05
2022-10-01T11:33:15.298Z,25.91
2022-10-01T11:35:52.789Z,25.81
2022-10-01T11:38:38.334Z,25.66
2022-10-01T11:41:12.314Z,25.68
2022-10-01T11:43:51.360Z,25.74
2022-10-01T11:46:51.848Z,25.73
2022-10-01T11:49:42.821Z,25.62
2022-10-01T11:52:34.022Z,25.64
2022-10-01T11:55:44.106Z,25.32
2022-10-01T11:58:36.985Z,24.87
2022-10-01T12:01:24.532Z,24.91
2022-10-01T12:03:52.777Z,24.92
2022-10-01T12:06:34.215Z,24.94
2022-10-01T12:09:23.567Z,24.89
2022-10-01T12:12:06.946Z,24.96
2022-10-01T12:15:16.703Z,24.98
2022-10-01T12:17:51.823Z,24.92
2022-10-01T12:20:38.218Z,24.86
2022-10-01T12:23:14.143Z,24.81
2022-10-01T12:25:57.017Z,24.73
2022-10-01T12:28:49.143Z,24.56
2022-10-01T12:31:42.175Z,24.51
2022-10-01T12:34:39.552Z,24.51
2022-10-01T12:37:19.962Z,24.55
2022-10-01T12:40:07.106Z,24.55
2022-10-01T12:42:41.156Z,24.60
2022-10-01T12:45:30.464Z,24.71
2022-10-01T12:48:36.182Z,24.79
2022-10-01T12:51:21.420Z,24.79
2022-10-01T12:53:56.240Z,24.72
2022-10-01T12:56:36.626Z,24.81
2022-10-01T12:59:31.923Z,24.87
2022-10-01T13:02:13.520Z,24.82
2022-10-01T13:04:59.207Z,24.89
2022-10-01T13:07:33.536Z,24.89
2022-10-01T13:10:14.724Z,24.84
2022-10-01T13:13:17.007Z,24.78
2022-10-01T13:15:49.764Z,24.75
2022-10-01T13:18:18.023Z,24.76
2022-10-01T13:20:54.447Z,24.80
2022-10-01T13:23:44.017Z,24.83
2022-10-01T13:26:12.259Z,24.74
2022-10-01T13:29:07.388Z,24.63
2022-10-01T13:31:52.011Z,24.52
2022-10-01T13:34:41.821Z,24.52
2022-10-01T13:37:17.184Z,24.36
2022-10-01T13:39:47.341Z,24.09
2022-10-01T13:42:27.750Z,23.88
2022-10-01T13:45:04.950Z,23.62
2022-10-01T13:47:41.427Z,23.41
2022-10-01T13:50:25.038Z,23.32
2022-10-01T13:53:06.716Z,23.26
2022-10-01T13:55:41.030Z,23.18
2022-10-01T13:58:30.880Z,23.15
2022-10-01T14:01:03.034Z,23.07
2022-10-01T14:03:39.459Z,22.95
2022-10-01T14:06:16.959Z,22.82
2022-10-01T14:08:51.474Z,22.70
2022-10-01T14:11:45.717Z,22.59
2022-10-01T14:14:38.471Z,22.47
2022-10-01T14:17:09.563Z,22.37
2022-10-01T14:19:45.752Z,22.34
2022-10-01T14:22:14.009Z,22.32
2022-10-01T14:25:03.371Z,22.26
2022-10-01T14:27:57.727Z,22.15
2022-10-01T14:30:52.500Z,22.04
2022-10-01T14:33:39.142Z,21.93
2022-10-01T14:36:20.259Z,21.84
2022-10-01T14:38:48.611Z,21.77
2022-10-01T14:41:24.152Z,21.71
2022-10-01T14:43:52.448Z,21.65
2022-10-01T14:46:20.801Z,21.59
2022-10-01T14:49:01.016Z,21.56
2022-10-01T14:51:31.450Z,21.53
2022-10-01T14:54:00.756Z,21.46
2022-10-01T14:56:29.700Z,21.42
2022-10-01T14:59:07.430Z,21.40
2022-10-01T15:01:35.806Z,21.37
2022-10-01T15:04:14.885Z,21.31
2022-10-01T15:06:43.537Z,21.25
2022-10-01T15:09:18.933Z,21.18
2022-10-01T15:11:50.539Z,21.12
2022-10-01T15:14:24.515Z,21.05
2022-10-01T15:16:53.086Z,21.00
2022-10-01T15:19:23.539Z,20.95
2022-10-01T15:21:52.025Z,20.88
2022-10-01T15:24:42.536Z,20.81
2022-10-01T15:27:13.842Z,20.71
2022-10-01T15:29:43.984Z,20.65
2022-10-01T15:32:17.800Z,20.60
2022-10-01T15:34:55.330Z,20.52
2022-10-01T15:37:38.354Z,20.46
2022-10-01T15:40:20.315Z,20.38
2022-10-01T15:43:07.544Z,20.28
2022-10-01T15:45:36.360Z,20.16
2022-10-01T15:48:04.767Z,20.05
2022-10-01T15:50:37.363Z,19.95
2022-10-01T15:53:23.667Z,19.86
2022-10-01T15:55:57.183Z,19.78
2022-10-01T15:58:31.935Z,19.72
2022-10-01T16:01:10.684Z,19.66
2022-10-01T16:03:42.612Z,19.62
2022-10-01T16:06:25.530Z,19.59
2022-10-01T16:09:16.182Z,19.57
2022-10-01T16:12:04.401Z,19.54
2022-10-01T16:14:43.961Z,19.49
2022-10-01T16:17:18.465Z,19.46
2022-10-01T16:20:15.710Z,19.45
2022-10-01T16:22:44.152Z,19.45
2022-10-01T16:25:21.579Z,19.46
2022-10-01T16:28:04.556Z,19.48
2022-10-01T16:30:34.336Z,19.49
2022-10-01T16:33:05.467Z,19.46
2022-10-01T16:35:40.890Z,19.38
2022-10-01T16:38:09.912Z,19.27
2022-10-01T16:40:44.121Z,19.09
2022-10-01T16:43:18.914Z,18.89
2022-10-01T16:45:47.273Z,18.71
2022-10-01T16:48:23.160Z,18.51
2022-10-01T16:50:54.422Z,18.33
2022-10-01T16:53:25.059Z,18.19
2022-10-01T16:55:54.959Z,18.01
2022-10-01T16:58:23.352Z,17.85
2022-10-01T17:00:52.109Z,17.68
2022-10-01T17:03:25.236Z,17.50
2022-10-01T17:05:53.633Z,17.35
2022-10-01T17:08:21.941Z,17.25
2022-10-01T17:10:58.779Z,17.14
2022-10-01T17:13:32.986Z,17.07
2022-10-01T17:16:01.829Z,16.95
2022-10-01T17:18:30.141Z,16.72
2022-10-01T17:21:05.806Z,16.44
2022-10-01T17:23:35.825Z,16.18
2022-10-01T17:26:08.800Z,15.98
2022-10-01T17:28:37.083Z,15.80
2022-10-01T17:31:08.761Z,15.70
2022-10-01T17:33:38.148Z,15.59
2022-10-01T17:36:08.325Z,15.46
2022-10-01T17:38:37.404Z,15.33
2022-10-01T17:41:06.147Z,15.22
2022-10-01T17:43:34.626Z,15.12
2022-10-01T17:46:03.250Z,15.00
2022-10-01T17:48:31.596Z,14.91
2022-10-01T17:51:01.102Z,14.81
2022-10-01T17:53:35.083Z,14.72
2022-10-01T17:56:18.247Z,14.61
2022-10-01T17:58:46.928Z,14.53
2022-10-01T18:01:20.116Z,14.47
2022-10-01T18:03:54.232Z,14.41
2022-10-01T18:06:24.519Z,14.37
2022-10-01T18:08:56.198Z,14.32
2022-10-01T18:11:28.310Z,14.23
2022-10-01T18:13:56.897Z,14.17
2022-10-01T18:16:26.211Z,14.13
2022-10-01T18:21:49.139Z,14.06
2022-10-01T18:24:18.057Z,14.03
2022-10-01T18:26:46.665Z,14.01
2022-10-01T18:29:24.310Z,14.01
2022-10-01T18:32:07.657Z,14.02
2022-10-01T18:34:42.163Z,14.00
2022-10-01T18:37:28.886Z,13.99
2022-10-01T18:40:06.103Z,14.00
2022-10-01T18:42:46.251Z,14.03
2022-10-01T18:45:18.279Z,14.04
2022-10-01T18:47:52.458Z,14.07
2022-10-01T18:50:49.411Z,14.08
2022-10-01T18:53:38.273Z,14.11
2022-10-01T18:56:18.700Z,14.15
2022-10-01T18:59:33.168Z,14.18
2022-10-01T19:02:40.016Z,14.21
2022-10-01T19:05:20.250Z,14.24
2022-10-01T19:07:48.503Z,14.25
2022-10-01T19:10:51.981Z,14.27
2022-10-01T19:13:30.590Z,14.30
2022-10-01T19:16:14.235Z,14.33
2022-10-01T19:19:16.893Z,14.35
2022-10-01T19:21:58.575Z,14.37
2022-10-01T19:24:41.274Z,14.38
2022-10-01T19:27:30.856Z,14.39
2022-10-01T19:30:02.097Z,14.39
2022-10-01T19:32:42.564Z,14.39
2022-10-01T19:35:17.232Z,14.39
2022-10-01T19:37:52.731Z,14.38
2022-10-01T19:40:30.367Z,14.39
2022-10-01T19:43:18.081Z,14.40
2022-10-01T19:46:05.003Z,14.39
2022-10-01T19:48:51.324Z,14.38
2022-10-01T19:51:23.967Z,14.37
2022-10-01T19:54:02.282Z,14.35
2022-10-01T19:56:33.854Z,14.36
2022-10-01T19:59:11.229Z,14.35
2022-10-01T20:01:46.712Z,14.30
2022-10-01T20:04:31.377Z,14.24
2022-10-01T20:07:37.161Z,14.17
2022-10-01T20:10:11.660Z,14.11
2022-10-01T20:12:44.879Z,14.07
2022-10-01T20:15:14.875Z,14.04
2022-10-01T20:17:46.406Z,14.03
2022-10-01T20:20:21.121Z,14.02
2022-10-01T20:23:01.875Z,14.01
2022-10-01T20:25:35.802Z,14.01
2022-10-01T20:28:25.671Z,14.01
2022-10-01T20:30:58.372Z,14.00
2022-10-01T20:33:43.261Z,14.00
2022-10-01T20:36:22.132Z,14.01
2022-10-01T20:39:04.067Z,14.02
2022-10-01T20:41:42.577Z,14.01
2022-10-01T20:44:17.452Z,14.01
2022-10-01T20:46:50.490Z,14.00
2022-10-01T20:49:43.821Z,14.00
2022-10-01T20:52:34.578Z,14.00
2022-10-01T20:55:12.970Z,13.99
2022-10-01T20:57:49.671Z,13.99
2022-10-01T21:00:21.322Z,14.00
2022-10-01T21:02:59.481Z,14.02
2022-10-01T21:05:37.698Z,14.03
2022-10-01T21:08:18.092Z,14.04
2022-10-01T21:10:59.800Z,14.08
2022-10-01T21:13:31.192Z,14.11
2022-10-01T21:16:18.111Z,14.14
2022-10-01T21:19:14.316Z,14.16
2022-10-01T21:22:07.697Z,14.19
2022-10-01T21:25:01.690Z,14.21
2022-10-01T21:27:35.230Z,14.21
2022-10-01T21:30:16.240Z,14.23
2022-10-01T21:33:03.256Z,14.22
2022-10-01T21:35:50.239Z,14.22
2022-10-01T21:38:29.761Z,14.23
2022-10-01T21:41:24.387Z,14.22
2022-10-01T21:44:27.856Z,14.24
2022-10-01T21:47:23.699Z,14.28
2022-10-01T21:50:15.536Z,14.32
2022-10-01T21:53:02.366Z,14.35
2022-10-01T21:56:14.008Z,14.36
2022-10-01T21:59:07.638Z,14.36
2022-10-01T22:02:11.110Z,14.35
2022-10-01T22:04:46.127Z,14.35
2022-10-01T22:07:28.291Z,14.35
2022-10-01T22:10:04.678Z,14.35
2022-10-01T22:12:37.471Z,14.36
2022-10-01T22:15:21.465Z,14.36
2022-10-01T22:17:53.932Z,14.33
2022-10-01T22:20:31.081Z,14.32
2022-10-01T22:23:09.156Z,14.28
2022-10-01T22:25:49.031Z,14.27
2022-10-01T22:28:23.220Z,14.20
2022-10-01T22:30:54.179Z,14.17
2022-10-01T22:33:32.363Z,14.13
2022-10-01T22:36:11.996Z,14.08
2022-10-01T22:38:57.006Z,14.04
2022-10-01T22:41:37.695Z,14.01
2022-10-01T22:44:16.812Z,13.98
2022-10-01T22:47:07.777Z,13.94
2022-10-01T22:50:02.109Z,13.91
2022-10-01T22:53:03.731Z,13.88
2022-10-01T22:55:50.237Z,13.86
2022-10-01T22:58:27.904Z,13.84
2022-10-01T23:01:21.999Z,13.82
2022-10-01T23:04:16.577Z,13.84
2022-10-01T23:07:09.098Z,13.81
2022-10-01T23:10:01.092Z,13.76
2022-10-01T23:12:41.350Z,13.73
2022-10-01T23:15:24.840Z,13.70
2022-10-01T23:18:05.390Z,13.68
2022-10-01T23:20:43.861Z,13.67
2022-10-01T23:23:32.293Z,13.67
2022-10-01T23:26:49.156Z,13.68
2022-10-01T23:29:48.472Z,13.67
2022-10-01T23:32:22.826Z,13.67
2022-10-01T23:35:16.402Z,13.66
2022-10-01T23:38:15.765Z,13.65
2022-10-01T23:40:48.385Z,13.67
2022-10-01T23:43:22.297Z,13.67
2022-10-01T23:46:17.876Z,13.68
2022-10-01T23:49:04.147Z,13.68
2022-10-01T23:51:48.751Z,13.69
2022-10-01T23:54:48.492Z,13.66
2022-10-01T23:57:24.216Z,13.67
